sensor_id;sensor_type;location;lat;lon;timestamp;pressure;altitude;pressure_sealevel;temperature;humidity
7940;BME280;4015;48.888;9.226;2023-02-13T00:02:17;155758.56;;;2.01;89.44
7940;BME280;4015;48.888;9.226;2023-02-13T00:04:42;155749.72;;;1.97;89.40
7940;BME280;4015;48.888;9.226;2023-02-13T00:07:09;155758.56;;;2.01;90.63
7940;BME280;4015;48.888;9.226;2023-02-13T00:09:37;155756.03;;;2.00;91.81
7940;BME280;4015;48.888;9.226;2023-02-13T00:12:04;155752.25;;;1.98;91.64
7940;BME280;4015;48.888;9.226;2023-02-13T00:14:29;155766.22;;;2.04;91.06
7940;BME280;4015;48.888;9.226;2023-02-13T00:16:54;155786.53;;;2.12;92.02
7940;BME280;4015;48.888;9.226;2023-02-13T00:19:20;155790.31;;;2.13;89.75
7940;BME280;4015;48.888;9.226;2023-02-13T00:21:45;155790.31;;;2.13;90.54
7940;BME280;4015;48.888;9.226;2023-02-13T00:24:10;155806.88;;;2.20;91.13
7940;BME280;4015;48.888;9.226;2023-02-13T00:26:36;155822.06;;;2.26;90.95
7940;BME280;4015;48.888;9.226;2023-02-13T00:29:01;155818.28;;;2.25;89.74
7940;BME280;4015;48.888;9.226;2023-02-13T00:31:26;155810.69;;;2.22;90.15
7940;BME280;4015;48.888;9.226;2023-02-13T00:33:52;155842.44;;;2.34;89.52
7940;BME280;4015;48.888;9.226;2023-02-13T00:36:20;155866.53;;;2.44;89.68
7940;BME280;4015;48.888;9.226;2023-02-13T00:38:46;155923.72;;;2.67;89.81
7940;BME280;4015;48.888;9.226;2023-02-13T00:41:12;155965.66;;;2.84;90.84
7940;BME280;4015;48.888;9.226;2023-02-13T00:43:38;155991.03;;;2.94;92.12
7940;BME280;4015;48.888;9.226;2023-02-13T00:46:04;155989.78;;;2.93;92.40
7940;BME280;4015;48.888;9.226;2023-02-13T00:48:30;155994.91;;;2.95;91.72
7940;BME280;4015;48.888;9.226;2023-02-13T00:50:56;155974.53;;;2.87;91.12
7940;BME280;4015;48.888;9.226;2023-02-13T00:53:23;155955.47;;;2.80;89.94
7940;BME280;4015;48.888;9.226;2023-02-13T00:55:49;155942.75;;;2.75;89.58
7940;BME280;4015;48.888;9.226;2023-02-13T00:58:15;155893.22;;;2.55;88.91
7940;BME280;4015;48.888;9.226;2023-02-13T01:00:40;155855.13;;;2.39;89.20
7940;BME280;4015;48.888;9.226;2023-02-13T01:03:06;155813.22;;;2.23;89.33
7940;BME280;4015;48.888;9.226;2023-02-13T01:05:31;155782.72;;;2.10;89.23
7940;BME280;4015;48.888;9.226;2023-02-13T01:07:57;155773.81;;;2.07;89.92
7940;BME280;4015;48.888;9.226;2023-02-13T01:10:22;155790.31;;;2.13;88.95
7940;BME280;4015;48.888;9.226;2023-02-13T01:12:48;155851.28;;;2.38;89.14
7940;BME280;4015;48.888;9.226;2023-02-13T01:15:13;155899.56;;;2.57;90.01
7940;BME280;4015;48.888;9.226;2023-02-13T01:17:39;155922.44;;;2.66;90.47
7940;BME280;4015;48.888;9.226;2023-02-13T01:20:09;155911.00;;;2.62;90.57
7940;BME280;4015;48.888;9.226;2023-02-13T01:22:35;155905.94;;;2.60;91.19
7940;BME280;4015;48.888;9.226;2023-02-13T01:25:01;155907.19;;;2.60;91.10
7940;BME280;4015;48.888;9.226;2023-02-13T01:27:27;155907.19;;;2.60;91.83
7940;BME280;4015;48.888;9.226;2023-02-13T01:29:53;155860.19;;;2.41;89.14
7940;BME280;4015;48.888;9.226;2023-02-13T01:32:18;155839.88;;;2.33;88.96
7940;BME280;4015;48.888;9.226;2023-02-13T01:34:44;155828.44;;;2.29;88.19
7940;BME280;4015;48.888;9.226;2023-02-13T01:37:09;155731.94;;;1.90;88.20
7940;BME280;4015;48.888;9.226;2023-02-13T01:39:34;155752.25;;;1.98;87.20
7940;BME280;4015;48.888;9.226;2023-02-13T01:42:00;155719.22;;;1.85;88.32
7940;BME280;4015;48.888;9.226;2023-02-13T01:45:03;155734.47;;;1.91;88.72
7940;BME280;4015;48.888;9.226;2023-02-13T01:50:10;155778.94;;;2.09;90.63
7940;BME280;4015;48.888;9.226;2023-02-13T01:52:40;155789.06;;;2.13;90.45
7940;BME280;4015;48.888;9.226;2023-02-13T01:55:09;155778.94;;;2.09;90.56
7940;BME280;4015;48.888;9.226;2023-02-13T01:57:36;155781.44;;;2.10;90.56
7940;BME280;4015;48.888;9.226;2023-02-13T02:00:08;155792.91;;;2.14;91.24
7940;BME280;4015;48.888;9.226;2023-02-13T02:02:37;155804.28;;;2.19;90.93
7940;BME280;4015;48.888;9.226;2023-02-13T02:05:04;155799.22;;;2.17;90.87
7940;BME280;4015;48.888;9.226;2023-02-13T02:07:31;155808.13;;;2.21;91.25
7940;BME280;4015;48.888;9.226;2023-02-13T02:09:59;155794.16;;;2.15;91.06
7940;BME280;4015;48.888;9.226;2023-02-13T02:12:33;155710.31;;;1.81;89.90
7940;BME280;4015;48.888;9.226;2023-02-13T02:15:00;155678.59;;;1.69;89.87
7940;BME280;4015;48.888;9.226;2023-02-13T02:17:27;155657.03;;;1.60;89.07
7940;BME280;4015;48.888;9.226;2023-02-13T02:34:50;155648.13;;;1.56;89.89
7940;BME280;4015;48.888;9.226;2023-02-13T02:40:51;155711.59;;;1.82;90.53
7940;BME280;4015;48.888;9.226;2023-02-13T02:43:43;155711.59;;;1.82;92.33
7940;BME280;4015;48.888;9.226;2023-02-13T02:49:09;155719.22;;;1.85;91.19
7940;BME280;4015;48.888;9.226;2023-02-13T02:52:18;155716.69;;;1.84;91.33
7940;BME280;4015;48.888;9.226;2023-02-13T02:54:52;155717.97;;;1.84;92.32
7940;BME280;4015;48.888;9.226;2023-02-13T02:57:57;155711.59;;;1.82;92.72
7940;BME280;4015;48.888;9.226;2023-02-13T03:00:39;155715.44;;;1.83;92.68
7940;BME280;4015;48.888;9.226;2023-02-13T03:03:25;155726.81;;;1.88;93.09
7940;BME280;4015;48.888;9.226;2023-02-13T03:06:15;155725.56;;;1.87;93.10
7940;BME280;4015;48.888;9.226;2023-02-13T03:08:45;155735.75;;;1.92;92.06
7940;BME280;4015;48.888;9.226;2023-02-13T03:11:33;155742.06;;;1.94;91.78
7940;BME280;4015;48.888;9.226;2023-02-13T03:14:19;155737.00;;;1.92;91.39
7940;BME280;4015;48.888;9.226;2023-02-13T03:16:46;155752.25;;;1.98;92.21
7940;BME280;4015;48.888;9.226;2023-02-13T03:23:11;155729.41;;;1.89;90.71
7940;BME280;4015;48.888;9.226;2023-02-13T03:28:27;155731.94;;;1.90;90.72
7940;BME280;4015;48.888;9.226;2023-02-13T03:31:33;155767.47;;;2.04;91.56
7940;BME280;4015;48.888;9.226;2023-02-13T03:34:06;155776.41;;;2.08;91.38
7940;BME280;4015;48.888;9.226;2023-02-13T03:36:52;155775.06;;;2.07;91.46
7940;BME280;4015;48.888;9.226;2023-02-13T03:40:02;155756.03;;;2.00;91.95
7940;BME280;4015;48.888;9.226;2023-02-13T03:45:09;155701.47;;;1.78;90.88
7940;BME280;4015;48.888;9.226;2023-02-13T03:47:56;155693.81;;;1.75;90.71
7940;BME280;4015;48.888;9.226;2023-02-13T03:50:25;155696.34;;;1.76;91.02
7940;BME280;4015;48.888;9.226;2023-02-13T03:52:54;155723.03;;;1.86;91.23
7940;BME280;4015;48.888;9.226;2023-02-13T03:55:24;155728.09;;;1.88;91.57
7940;BME280;4015;48.888;9.226;2023-02-13T03:58:22;155662.09;;;1.62;90.31
7940;BME280;4015;48.888;9.226;2023-02-13T04:01:07;155622.75;;;1.46;89.24
7940;BME280;4015;48.888;9.226;2023-02-13T04:03:49;155610.06;;;1.41;88.84
7940;BME280;4015;48.888;9.226;2023-02-13T04:06:23;155611.31;;;1.42;88.14
7940;BME280;4015;48.888;9.226;2023-02-13T04:08:50;155601.16;;;1.38;88.32
7940;BME280;4015;48.888;9.226;2023-02-13T04:14:00;155577.06;;;1.28;88.21
7940;BME280;4015;48.888;9.226;2023-02-13T04:16:38;155542.81;;;1.14;90.44
7940;BME280;4015;48.888;9.226;2023-02-13T04:19:06;155521.19;;;1.05;91.23
7940;BME280;4015;48.888;9.226;2023-02-13T04:21:34;155532.63;;;1.10;90.57
7940;BME280;4015;48.888;9.226;2023-02-13T04:24:00;155525.03;;;1.07;89.44
7940;BME280;4015;48.888;9.226;2023-02-13T04:26:30;155513.59;;;1.02;89.63
7940;BME280;4015;48.888;9.226;2023-02-13T04:28:56;155517.41;;;1.04;88.91
7940;BME280;4015;48.888;9.226;2023-02-13T04:31:22;155481.88;;;0.90;90.19
7940;BME280;4015;48.888;9.226;2023-02-13T04:33:47;155431.16;;;0.69;89.78
7940;BME280;4015;48.888;9.226;2023-02-13T04:36:12;155413.34;;;0.62;89.61
7940;BME280;4015;48.888;9.226;2023-02-13T04:38:38;155385.47;;;0.51;90.73
7940;BME280;4015;48.888;9.226;2023-02-13T04:41:03;155384.22;;;0.50;90.46
7940;BME280;4015;48.888;9.226;2023-02-13T04:43:28;155371.50;;;0.45;90.89
7940;BME280;4015;48.888;9.226;2023-02-13T04:45:54;155375.31;;;0.47;90.71
7940;BME280;4015;48.888;9.226;2023-02-13T04:48:19;155391.78;;;0.53;90.14
7940;BME280;4015;48.888;9.226;2023-02-13T04:50:44;155418.44;;;0.64;90.81
7940;BME280;4015;48.888;9.226;2023-02-13T04:53:10;155445.06;;;0.75;90.93
7940;BME280;4015;48.888;9.226;2023-02-13T04:55:35;155453.97;;;0.78;90.31
7940;BME280;4015;48.888;9.226;2023-02-13T04:58:00;155446.31;;;0.75;91.32
7940;BME280;4015;48.888;9.226;2023-02-13T05:00:28;155419.72;;;0.65;91.42
7940;BME280;4015;48.888;9.226;2023-02-13T05:02:59;155385.47;;;0.51;91.31
7940;BME280;4015;48.888;9.226;2023-02-13T05:05:24;155385.47;;;0.51;91.04
7940;BME280;4015;48.888;9.226;2023-02-13T05:07:50;155400.69;;;0.57;91.11
7940;BME280;4015;48.888;9.226;2023-02-13T05:10:15;155377.84;;;0.48;91.89
7940;BME280;4015;48.888;9.226;2023-02-13T05:12:40;155379.09;;;0.48;91.36
7940;BME280;4015;48.888;9.226;2023-02-13T05:15:06;155388.00;;;0.52;91.05
7940;BME280;4015;48.888;9.226;2023-02-13T05:17:31;155427.31;;;0.68;91.09
7940;BME280;4015;48.888;9.226;2023-02-13T05:19:57;155441.25;;;0.73;90.60
7940;BME280;4015;48.888;9.226;2023-02-13T05:22:23;155441.25;;;0.73;90.00
7940;BME280;4015;48.888;9.226;2023-02-13T05:25:07;155443.78;;;0.74;90.50
7940;BME280;4015;48.888;9.226;2023-02-13T05:27:32;155450.16;;;0.77;90.25
7940;BME280;4015;48.888;9.226;2023-02-13T05:29:58;155448.91;;;0.76;90.88
7940;BME280;4015;48.888;9.226;2023-02-13T05:32:23;155445.06;;;0.75;90.36
7940;BME280;4015;48.888;9.226;2023-02-13T05:34:48;155459.00;;;0.80;90.35
7940;BME280;4015;48.888;9.226;2023-02-13T05:37:14;155440.00;;;0.73;90.70
7940;BME280;4015;48.888;9.226;2023-02-13T05:39:39;155410.81;;;0.61;91.03
7940;BME280;4015;48.888;9.226;2023-02-13T05:42:05;155419.72;;;0.65;91.24
7940;BME280;4015;48.888;9.226;2023-02-13T05:44:30;155433.66;;;0.70;91.07
7940;BME280;4015;48.888;9.226;2023-02-13T05:46:56;155432.41;;;0.70;90.65
7940;BME280;4015;48.888;9.226;2023-02-13T05:49:21;155424.78;;;0.67;90.76
7940;BME280;4015;48.888;9.226;2023-02-13T05:51:47;155433.66;;;0.70;91.09
7940;BME280;4015;48.888;9.226;2023-02-13T05:54:13;155415.91;;;0.63;91.07
7940;BME280;4015;48.888;9.226;2023-02-13T05:56:38;155405.75;;;0.59;91.52
7940;BME280;4015;48.888;9.226;2023-02-13T05:59:04;155409.56;;;0.61;91.46
7940;BME280;4015;48.888;9.226;2023-02-13T06:01:29;155382.91;;;0.50;92.83
7940;BME280;4015;48.888;9.226;2023-02-13T06:03:54;155396.84;;;0.56;92.46
7940;BME280;4015;48.888;9.226;2023-02-13T06:06:20;155408.28;;;0.60;92.10
7940;BME280;4015;48.888;9.226;2023-02-13T06:08:46;155400.69;;;0.57;92.36
7940;BME280;4015;48.888;9.226;2023-02-13T06:11:12;155408.28;;;0.60;92.34
7940;BME280;4015;48.888;9.226;2023-02-13T06:13:37;155408.28;;;0.60;92.09
7940;BME280;4015;48.888;9.226;2023-02-13T06:16:06;155407.03;;;0.60;91.74
7940;BME280;4015;48.888;9.226;2023-02-13T06:18:32;155412.06;;;0.62;91.80
7940;BME280;4015;48.888;9.226;2023-02-13T06:20:57;155412.06;;;0.62;91.52
7940;BME280;4015;48.888;9.226;2023-02-13T06:23:23;155424.78;;;0.67;91.46
7940;BME280;4015;48.888;9.226;2023-02-13T06:25:49;155417.19;;;0.64;91.45
7940;BME280;4015;48.888;9.226;2023-02-13T06:28:14;155418.44;;;0.64;91.38
7940;BME280;4015;48.888;9.226;2023-02-13T06:30:39;155431.16;;;0.69;91.42
7940;BME280;4015;48.888;9.226;2023-02-13T06:33:05;155424.78;;;0.67;91.00
7940;BME280;4015;48.888;9.226;2023-02-13T06:35:30;155436.19;;;0.71;91.12
7940;BME280;4015;48.888;9.226;2023-02-13T06:37:56;155445.06;;;0.75;90.85
7940;BME280;4015;48.888;9.226;2023-02-13T06:40:21;155432.41;;;0.70;91.05
7940;BME280;4015;48.888;9.226;2023-02-13T06:42:47;155434.94;;;0.71;91.19
7940;BME280;4015;48.888;9.226;2023-02-13T06:45:13;155434.94;;;0.71;90.84
7940;BME280;4015;48.888;9.226;2023-02-13T06:47:42;155432.41;;;0.70;90.79
7940;BME280;4015;48.888;9.226;2023-02-13T06:50:09;155447.63;;;0.76;91.06
7940;BME280;4015;48.888;9.226;2023-02-13T06:52:35;155433.66;;;0.70;90.89
7940;BME280;4015;48.888;9.226;2023-02-13T06:55:00;155426.03;;;0.67;90.81
7940;BME280;4015;48.888;9.226;2023-02-13T06:57:26;155418.44;;;0.64;90.70
7940;BME280;4015;48.888;9.226;2023-02-13T06:59:51;155409.56;;;0.61;90.40
7940;BME280;4015;48.888;9.226;2023-02-13T07:02:16;155415.91;;;0.63;90.71
7940;BME280;4015;48.888;9.226;2023-02-13T07:04:42;155438.72;;;0.72;89.95
7940;BME280;4015;48.888;9.226;2023-02-13T07:07:07;155443.78;;;0.74;90.52
7940;BME280;4015;48.888;9.226;2023-02-13T07:09:32;155450.16;;;0.77;90.18
7940;BME280;4015;48.888;9.226;2023-02-13T07:12:01;155452.69;;;0.78;89.52
7940;BME280;4015;48.888;9.226;2023-02-13T07:14:27;155492.00;;;0.94;90.20
7940;BME280;4015;48.888;9.226;2023-02-13T07:16:52;155559.28;;;1.21;89.22
7940;BME280;4015;48.888;9.226;2023-02-13T07:19:17;155573.25;;;1.26;88.87
7940;BME280;4015;48.888;9.226;2023-02-13T07:21:42;155587.19;;;1.32;88.64
7940;BME280;4015;48.888;9.226;2023-02-13T07:24:08;155575.78;;;1.27;88.29
7940;BME280;4015;48.888;9.226;2023-02-13T07:26:33;155602.41;;;1.38;88.05
7940;BME280;4015;48.888;9.226;2023-02-13T07:28:58;155632.88;;;1.50;88.05
7940;BME280;4015;48.888;9.226;2023-02-13T07:31:30;155610.06;;;1.41;88.03
7940;BME280;4015;48.888;9.226;2023-02-13T07:33:55;155583.38;;;1.30;88.38
7940;BME280;4015;48.888;9.226;2023-02-13T07:36:20;155635.47;;;1.51;87.61
7940;BME280;4015;48.888;9.226;2023-02-13T07:38:45;155667.19;;;1.64;86.86
7940;BME280;4015;48.888;9.226;2023-02-13T07:41:11;155640.53;;;1.53;87.47
7940;BME280;4015;48.888;9.226;2023-02-13T07:43:36;155723.03;;;1.86;87.12
7940;BME280;4015;48.888;9.226;2023-02-13T07:46:02;155795.44;;;2.15;86.56
7940;BME280;4015;48.888;9.226;2023-02-13T07:48:28;155909.72;;;2.61;85.80
7940;BME280;4015;48.888;9.226;2023-02-13T07:50:58;156202.06;;;3.78;83.38
7940;BME280;4015;48.888;9.226;2023-02-13T07:53:23;156526.44;;;5.08;76.10
7940;BME280;4015;48.888;9.226;2023-02-13T07:55:48;156600.25;;;5.38;74.66
7940;BME280;4015;48.888;9.226;2023-02-13T07:58:14;156769.66;;;6.06;70.74
7940;BME280;4015;48.888;9.226;2023-02-13T08:00:39;157116.22;;;7.44;67.61
7940;BME280;4015;48.888;9.226;2023-02-13T08:03:04;157390.41;;;8.54;64.89
7940;BME280;4015;48.888;9.226;2023-02-13T08:05:30;157267.97;;;8.05;64.63
7940;BME280;4015;48.888;9.226;2023-02-13T08:07:56;157468.25;;;8.85;63.48
7940;BME280;4015;48.888;9.226;2023-02-13T08:10:22;157449.13;;;8.77;62.28
7940;BME280;4015;48.888;9.226;2023-02-13T08:13:06;157648.22;;;9.57;61.14
7940;BME280;4015;48.888;9.226;2023-02-13T08:15:33;157709.50;;;9.81;60.80
7940;BME280;4015;48.888;9.226;2023-02-13T08:17:58;157626.50;;;9.48;61.25
7940;BME280;4015;48.888;9.226;2023-02-13T08:20:23;157708.25;;;9.81;61.57
7940;BME280;4015;48.888;9.226;2023-02-13T08:22:49;157627.78;;;9.49;61.89
7940;BME280;4015;48.888;9.226;2023-02-13T08:25:15;157957.28;;;10.80;59.10
7940;BME280;4015;48.888;9.226;2023-02-13T08:27:41;157856.41;;;10.40;59.18
7940;BME280;4015;48.888;9.226;2023-02-13T08:30:07;157648.22;;;9.57;61.63
7940;BME280;4015;48.888;9.226;2023-02-13T08:32:33;157627.78;;;9.49;62.25
7940;BME280;4015;48.888;9.226;2023-02-13T08:34:58;158007.13;;;11.00;59.18
7940;BME280;4015;48.888;9.226;2023-02-13T08:37:23;158239.78;;;11.93;57.20
7940;BME280;4015;48.888;9.226;2023-02-13T08:39:49;158330.56;;;12.29;55.22
7940;BME280;4015;48.888;9.226;2023-02-13T08:42:14;158280.72;;;12.09;56.22
7940;BME280;4015;48.888;9.226;2023-02-13T08:44:40;158235.97;;;11.91;56.42
7940;BME280;4015;48.888;9.226;2023-02-13T08:47:07;158265.38;;;12.03;55.12
7940;BME280;4015;48.888;9.226;2023-02-13T08:49:32;158088.94;;;11.32;57.34
7940;BME280;4015;48.888;9.226;2023-02-13T08:51:59;157898.56;;;10.57;58.61
7940;BME280;4015;48.888;9.226;2023-02-13T08:54:25;157958.56;;;10.80;59.55
7940;BME280;4015;48.888;9.226;2023-02-13T08:56:52;158033.97;;;11.11;58.94
7940;BME280;4015;48.888;9.226;2023-02-13T08:59:17;158074.88;;;11.27;58.54
7940;BME280;4015;48.888;9.226;2023-02-13T09:01:42;157948.38;;;10.76;59.77
7940;BME280;4015;48.888;9.226;2023-02-13T09:04:08;157875.53;;;10.47;59.79
7940;BME280;4015;48.888;9.226;2023-02-13T09:06:33;157756.75;;;10.00;62.95
7940;BME280;4015;48.888;9.226;2023-02-13T09:08:58;157915.16;;;10.63;60.66
7940;BME280;4015;48.888;9.226;2023-02-13T09:11:24;158032.69;;;11.10;59.71
7940;BME280;4015;48.888;9.226;2023-02-13T09:13:52;158019.91;;;11.05;60.34
7940;BME280;4015;48.888;9.226;2023-02-13T09:16:18;158234.69;;;11.91;58.33
7940;BME280;4015;48.888;9.226;2023-02-13T09:18:46;158475.09;;;12.86;56.48
7940;BME280;4015;48.888;9.226;2023-02-13T09:21:12;158498.16;;;12.95;56.58
7940;BME280;4015;48.888;9.226;2023-02-13T09:23:39;158471.28;;;12.85;56.70
7940;BME280;4015;48.888;9.226;2023-02-13T09:26:07;158603.09;;;13.37;54.83
7940;BME280;4015;48.888;9.226;2023-02-13T09:28:34;158463.56;;;12.82;55.49
7940;BME280;4015;48.888;9.226;2023-02-13T09:31:04;158801.50;;;14.16;53.26
7940;BME280;4015;48.888;9.226;2023-02-13T09:33:29;158964.16;;;14.81;51.76
7940;BME280;4015;48.888;9.226;2023-02-13T09:35:54;158877.09;;;14.46;50.95
7940;BME280;4015;48.888;9.226;2023-02-13T09:38:20;159070.47;;;15.23;49.60
7940;BME280;4015;48.888;9.226;2023-02-13T09:40:54;159174.28;;;15.64;49.75
7940;BME280;4015;48.888;9.226;2023-02-13T09:43:31;158992.34;;;14.92;49.79
7940;BME280;4015;48.888;9.226;2023-02-13T09:46:03;159015.38;;;15.01;50.34
7940;BME280;4015;48.888;9.226;2023-02-13T09:48:35;159111.44;;;15.39;49.59
7940;BME280;4015;48.888;9.226;2023-02-13T09:51:02;159461.50;;;16.79;47.25
7940;BME280;4015;48.888;9.226;2023-02-13T09:53:28;159806.53;;;18.16;43.79
7940;BME280;4015;48.888;9.226;2023-02-13T09:56:09;159621.78;;;17.42;45.32
7940;BME280;4015;48.888;9.226;2023-02-13T09:58:40;159884.84;;;18.47;43.17
7940;BME280;4015;48.888;9.226;2023-02-13T10:01:22;160208.50;;;19.75;40.91
7940;BME280;4015;48.888;9.226;2023-02-13T10:04:10;160324.09;;;20.21;41.43
7940;BME280;4015;48.888;9.226;2023-02-13T10:06:44;160248.28;;;19.91;40.60
7940;BME280;4015;48.888;9.226;2023-02-13T10:12:12;160268.88;;;19.99;41.48
7940;BME280;4015;48.888;9.226;2023-02-13T10:14:51;159852.75;;;18.34;43.96
7940;BME280;4015;48.888;9.226;2023-02-13T10:17:38;160298.38;;;20.11;40.40
7940;BME280;4015;48.888;9.226;2023-02-13T10:20:24;160443.66;;;20.68;39.22
7940;BME280;4015;48.888;9.226;2023-02-13T10:25:52;160505.28;;;20.93;39.92
7940;BME280;4015;48.888;9.226;2023-02-13T10:31:01;160475.78;;;20.81;39.04
7940;BME280;4015;48.888;9.226;2023-02-13T10:33:31;160284.31;;;20.05;40.81
7940;BME280;4015;48.888;9.226;2023-02-13T10:38:39;160533.59;;;21.04;39.60
7940;BME280;4015;48.888;9.226;2023-02-13T10:52:30;160738.03;;;21.85;38.32
7940;BME280;4015;48.888;9.226;2023-02-13T11:00:41;160551.56;;;21.11;39.47
7940;BME280;4015;48.888;9.226;2023-02-13T11:03:17;160073.59;;;19.22;42.60
7940;BME280;4015;48.888;9.226;2023-02-13T11:05:43;159922.09;;;18.62;44.12
7940;BME280;4015;48.888;9.226;2023-02-13T11:08:21;160349.81;;;20.31;40.78
7940;BME280;4015;48.888;9.226;2023-02-13T11:10:48;159954.22;;;18.74;43.72
7940;BME280;4015;48.888;9.226;2023-02-13T11:13:18;159994.00;;;18.90;42.00
7940;BME280;4015;48.888;9.226;2023-02-13T11:16:03;160331.84;;;20.24;41.77
7940;BME280;4015;48.888;9.226;2023-02-13T11:18:35;160308.69;;;20.15;41.79
7940;BME280;4015;48.888;9.226;2023-02-13T11:21:06;160493.78;;;20.88;39.68
7940;BME280;4015;48.888;9.226;2023-02-13T11:23:39;161023.66;;;22.98;36.84
7940;BME280;4015;48.888;9.226;2023-02-13T11:26:09;160783.06;;;22.03;38.23
7940;BME280;4015;48.888;9.226;2023-02-13T11:28:46;160507.91;;;20.94;38.83
7940;BME280;4015;48.888;9.226;2023-02-13T11:31:26;160501.47;;;20.91;39.97
7940;BME280;4015;48.888;9.226;2023-02-13T11:33:51;160475.78;;;20.81;38.65
7940;BME280;4015;48.888;9.226;2023-02-13T11:36:31;160570.91;;;21.19;38.71
7940;BME280;4015;48.888;9.226;2023-02-13T11:39:04;160086.44;;;19.27;41.64
7940;BME280;4015;48.888;9.226;2023-02-13T11:41:30;160500.19;;;20.91;40.08
7940;BME280;4015;48.888;9.226;2023-02-13T11:44:00;160433.34;;;20.64;39.28
7940;BME280;4015;48.888;9.226;2023-02-13T11:46:31;160387.09;;;20.46;40.26
7940;BME280;4015;48.888;9.226;2023-02-13T11:49:21;160071.03;;;19.21;41.94
7940;BME280;4015;48.888;9.226;2023-02-13T11:51:49;160190.53;;;19.68;41.02
7940;BME280;4015;48.888;9.226;2023-02-13T11:54:31;160370.34;;;20.39;40.42
7940;BME280;4015;48.888;9.226;2023-02-13T11:57:01;160813.97;;;22.15;37.48
7940;BME280;4015;48.888;9.226;2023-02-13T11:59:31;160533.59;;;21.04;39.64
7940;BME280;4015;48.888;9.226;2023-02-13T12:02:19;160071.03;;;19.21;41.28
7940;BME280;4015;48.888;9.226;2023-02-13T12:04:46;160218.75;;;19.79;41.75
7940;BME280;4015;48.888;9.226;2023-02-13T12:07:14;159709.03;;;17.77;43.16
7940;BME280;4015;48.888;9.226;2023-02-13T12:09:41;159608.94;;;17.37;44.85
7940;BME280;4015;48.888;9.226;2023-02-13T12:12:15;159526.88;;;17.05;45.75
7940;BME280;4015;48.888;9.226;2023-02-13T12:14:43;159965.75;;;18.79;42.74
7940;BME280;4015;48.888;9.226;2023-02-13T12:17:21;159864.31;;;18.39;42.59
7940;BME280;4015;48.888;9.226;2023-02-13T12:19:48;159589.72;;;17.30;45.91
7940;BME280;4015;48.888;9.226;2023-02-13T12:30:03;159397.34;;;16.53;46.95
7940;BME280;4015;48.888;9.226;2023-02-13T12:32:56;159633.28;;;17.47;44.76
7940;BME280;4015;48.888;9.226;2023-02-13T12:35:31;159607.69;;;17.37;46.11
7940;BME280;4015;48.888;9.226;2023-02-13T12:54:19;160789.47;;;22.05;38.08
7940;BME280;4015;48.888;9.226;2023-02-13T13:08:32;160369.06;;;20.39;39.99
7940;BME280;4015;48.888;9.226;2023-02-13T13:16:36;159892.56;;;18.50;43.27
7940;BME280;4015;48.888;9.226;2023-02-13T13:19:37;159750.13;;;17.93;43.86
7940;BME280;4015;48.888;9.226;2023-02-13T13:27:32;159729.59;;;17.85;44.64
7940;BME280;4015;48.888;9.226;2023-02-13T13:32:38;159514.03;;;16.99;46.41
7940;BME280;4015;48.888;9.226;2023-02-13T13:35:13;159578.16;;;17.25;45.51
7940;BME280;4015;48.888;9.226;2023-02-13T13:37:45;159465.31;;;16.80;46.12
7940;BME280;4015;48.888;9.226;2023-02-13T13:40:40;159584.56;;;17.27;46.06
7940;BME280;4015;48.888;9.226;2023-02-13T13:45:48;159544.81;;;17.12;45.76
7940;BME280;4015;48.888;9.226;2023-02-13T13:50:51;159674.38;;;17.63;44.69
7940;BME280;4015;48.888;9.226;2023-02-13T13:53:19;159679.47;;;17.65;44.90
7940;BME280;4015;48.888;9.226;2023-02-13T13:58:44;160163.50;;;19.57;41.96
7940;BME280;4015;48.888;9.226;2023-02-13T14:01:27;160243.19;;;19.89;41.13
7940;BME280;4015;48.888;9.226;2023-02-13T14:04:01;160074.88;;;19.22;41.90
7940;BME280;4015;48.888;9.226;2023-02-13T14:09:38;160167.38;;;19.59;41.99
7940;BME280;4015;48.888;9.226;2023-02-13T14:14:57;159859.19;;;18.37;43.73
7940;BME280;4015;48.888;9.226;2023-02-13T14:22:45;159895.13;;;18.51;43.70
7940;BME280;4015;48.888;9.226;2023-02-13T14:25:23;159990.16;;;18.89;43.19
7940;BME280;4015;48.888;9.226;2023-02-13T14:28:01;160109.59;;;19.36;42.45
7940;BME280;4015;48.888;9.226;2023-02-13T14:30:35;160041.50;;;19.09;42.88
7940;BME280;4015;48.888;9.226;2023-02-13T14:33:06;160058.19;;;19.16;42.77
7940;BME280;4015;48.888;9.226;2023-02-13T14:35:35;160027.38;;;19.03;43.58
7940;BME280;4015;48.888;9.226;2023-02-13T14:38:06;159933.59;;;18.66;43.32
7940;BME280;4015;48.888;9.226;2023-02-13T14:40:47;160096.72;;;19.31;43.52
7940;BME280;4015;48.888;9.226;2023-02-13T14:43:30;160119.81;;;19.40;42.60
7940;BME280;4015;48.888;9.226;2023-02-13T14:46:22;159991.44;;;18.89;44.24
7940;BME280;4015;48.888;9.226;2023-02-13T14:48:57;160124.94;;;19.42;42.87
7940;BME280;4015;48.888;9.226;2023-02-13T14:51:33;160038.94;;;19.08;43.51
7940;BME280;4015;48.888;9.226;2023-02-13T14:54:08;159868.16;;;18.40;43.79
7940;BME280;4015;48.888;9.226;2023-02-13T14:56:40;159658.97;;;17.57;46.07
7940;BME280;4015;48.888;9.226;2023-02-13T15:01:39;159219.13;;;15.82;49.08
7940;BME280;4015;48.888;9.226;2023-02-13T15:04:20;159111.44;;;15.39;50.67
7940;BME280;4015;48.888;9.226;2023-02-13T15:06:47;158994.88;;;14.93;52.42
7940;BME280;4015;48.888;9.226;2023-02-13T15:09:37;158997.44;;;14.94;51.48
7940;BME280;4015;48.888;9.226;2023-02-13T15:12:23;158934.69;;;14.69;52.47
7940;BME280;4015;48.888;9.226;2023-02-13T15:14:48;158932.13;;;14.68;52.47
7940;BME280;4015;48.888;9.226;2023-02-13T15:17:20;158843.75;;;14.33;54.01
7940;BME280;4015;48.888;9.226;2023-02-13T15:19:49;158769.50;;;14.03;53.81
7940;BME280;4015;48.888;9.226;2023-02-13T15:22:34;158749.03;;;13.95;54.27
7940;BME280;4015;48.888;9.226;2023-02-13T15:25:00;158638.94;;;13.52;54.73
7940;BME280;4015;48.888;9.226;2023-02-13T15:27:28;158650.44;;;13.56;55.09
7940;BME280;4015;48.888;9.226;2023-02-13T15:29:59;158636.34;;;13.50;56.27
7940;BME280;4015;48.888;9.226;2023-02-13T15:32:33;158567.28;;;13.23;55.97
7940;BME280;4015;48.888;9.226;2023-02-13T15:35:04;158522.44;;;13.05;57.56
7940;BME280;4015;48.888;9.226;2023-02-13T15:37:34;158493.00;;;12.93;57.57
7940;BME280;4015;48.888;9.226;2023-02-13T15:40:18;158443.13;;;12.74;57.91
7940;BME280;4015;48.888;9.226;2023-02-13T15:42:46;158376.63;;;12.47;58.35
7940;BME280;4015;48.888;9.226;2023-02-13T15:45:16;158320.34;;;12.25;59.00
7940;BME280;4015;48.888;9.226;2023-02-13T15:47:43;158242.34;;;11.94;60.28
7940;BME280;4015;48.888;9.226;2023-02-13T15:52:42;158193.72;;;11.74;60.35